sensor_id;sensor_type;location;lat;lon;timestamp;temperature;humidity
23207;DHT22;11773;52.570;13.052;2024-03-25T00:02:02;8.60;99.90
23207;DHT22;11773;52.570;13.052;2024-03-25T00:04:31;8.60;99.90
23207;DHT22;11773;52.570;13.052;2024-03-25T00:07:01;8.40;99.90
23207;DHT22;11773;52.570;13.052;2024-03-25T00:09:31;8.60;99.90
23207;DHT22;11773;52.570;13.052;2024-03-25T00:12:00;8.40;99.90
23207;DHT22;11773;52.570;13.052;2024-03-25T00:14:31;8.30;99.90
23207;DHT22;11773;52.570;13.052;2024-03-25T00:17:01;8.50;99.90
23207;DHT22;11773;52.570;13.052;2024-03-25T00:19:31;8.60;99.90
23207;DHT22;11773;52.570;13.052;2024-03-25T00:22:00;8.70;99.90
23207;DHT22;11773;52.570;13.052;2024-03-25T00:24:30;8.60;99.90
23207;DHT22;11773;52.570;13.052;2024-03-25T00:26:59;8.40;99.90
23207;DHT22;11773;52.570;13.052;2024-03-25T00:29:29;8.40;99.90
23207;DHT22;11773;52.570;13.052;2024-03-25T00:31:59;8.40;99.90
23207;DHT22;11773;52.570;13.052;2024-03-25T00:34:28;8.50;99.90
23207;DHT22;11773;52.570;13.052;2024-03-25T00:37:01;8.60;99.90
23207;DHT22;11773;52.570;13.052;2024-03-25T00:39:32;8.70;99.90
23207;DHT22;11773;52.570;13.052;2024-03-25T00:42:03;8.70;99.90
23207;DHT22;11773;52.570;13.052;2024-03-25T00:44:33;8.60;99.90
23207;DHT22;11773;52.570;13.052;2024-03-25T00:47:03;8.50;99.90
23207;DHT22;11773;52.570;13.052;2024-03-25T00:49:33;8.50;99.90
23207;DHT22;11773;52.570;13.052;2024-03-25T00:52:02;8.60;99.90
23207;DHT22;11773;52.570;13.052;2024-03-25T00:54:32;8.60;99.90
23207;DHT22;11773;52.570;13.052;2024-03-25T00:57:02;8.70;99.90
23207;DHT22;11773;52.570;13.052;2024-03-25T00:59:31;8.70;99.90
23207;DHT22;11773;52.570;13.052;2024-03-25T01:02:01;8.80;99.90
23207;DHT22;11773;52.570;13.052;2024-03-25T01:04:31;8.80;99.90
23207;DHT22;11773;52.570;13.052;2024-03-25T01:07:00;8.80;99.90
23207;DHT22;11773;52.570;13.052;2024-03-25T01:09:30;8.90;99.90
23207;DHT22;11773;52.570;13.052;2024-03-25T01:12:00;8.80;99.90
23207;DHT22;11773;52.570;13.052;2024-03-25T01:14:29;8.80;99.90
23207;DHT22;11773;52.570;13.052;2024-03-25T01:16:59;8.80;99.90
23207;DHT22;11773;52.570;13.052;2024-03-25T01:19:29;8.80;99.90
23207;DHT22;11773;52.570;13.052;2024-03-25T01:21:58;8.70;99.90
23207;DHT22;11773;52.570;13.052;2024-03-25T01:24:28;8.70;99.90
23207;DHT22;11773;52.570;13.052;2024-03-25T01:26:58;8.40;99.90
23207;DHT22;11773;52.570;13.052;2024-03-25T01:29:28;8.40;99.90
23207;DHT22;11773;52.570;13.052;2024-03-25T01:31:57;8.60;99.90
23207;DHT22;11773;52.570;13.052;2024-03-25T01:34:27;8.60;99.90
23207;DHT22;11773;52.570;13.052;2024-03-25T01:36:59;8.50;99.90
23207;DHT22;11773;52.570;13.052;2024-03-25T01:39:29;8.50;99.90
23207;DHT22;11773;52.570;13.052;2024-03-25T01:41:59;8.50;99.90
23207;DHT22;11773;52.570;13.052;2024-03-25T01:44:28;8.40;99.90
23207;DHT22;11773;52.570;13.052;2024-03-25T01:46:58;8.50;99.90
23207;DHT22;11773;52.570;13.052;2024-03-25T01:49:28;8.50;99.90
23207;DHT22;11773;52.570;13.052;2024-03-25T01:51:58;8.60;99.90
23207;DHT22;11773;52.570;13.052;2024-03-25T01:54:28;8.50;99.90
23207;DHT22;11773;52.570;13.052;2024-03-25T01:56:58;8.60;99.90
23207;DHT22;11773;52.570;13.052;2024-03-25T01:59:28;8.60;99.90
23207;DHT22;11773;52.570;13.052;2024-03-25T02:01:58;8.50;99.90
23207;DHT22;11773;52.570;13.052;2024-03-25T02:04:28;8.30;99.90
23207;DHT22;11773;52.570;13.052;2024-03-25T02:06:58;8.30;99.90
23207;DHT22;11773;52.570;13.052;2024-03-25T02:09:29;8.30;99.90
23207;DHT22;11773;52.570;13.052;2024-03-25T02:11:58;8.30;99.90
23207;DHT22;11773;52.570;13.052;2024-03-25T02:14:30;8.30;99.90
23207;DHT22;11773;52.570;13.052;2024-03-25T02:16:59;8.20;99.90
23207;DHT22;11773;52.570;13.052;2024-03-25T02:19:30;8.20;99.90
23207;DHT22;11773;52.570;13.052;2024-03-25T02:22:00;8.20;99.90
23207;DHT22;11773;52.570;13.052;2024-03-25T02:24:31;8.20;99.90
23207;DHT22;11773;52.570;13.052;2024-03-25T02:27:03;8.20;99.90
23207;DHT22;11773;52.570;13.052;2024-03-25T02:29:34;8.20;99.90
23207;DHT22;11773;52.570;13.052;2024-03-25T02:32:04;8.20;99.90
23207;DHT22;11773;52.570;13.052;2024-03-25T02:34:34;8.20;99.90
23207;DHT22;11773;52.570;13.052;2024-03-25T02:37:03;8.20;99.90
23207;DHT22;11773;52.570;13.052;2024-03-25T02:39:34;8.10;99.90
23207;DHT22;11773;52.570;13.052;2024-03-25T02:42:04;8.10;99.90
23207;DHT22;11773;52.570;13.052;2024-03-25T02:44:34;8.20;99.90
23207;DHT22;11773;52.570;13.052;2024-03-25T02:47:04;8.10;99.90
23207;DHT22;11773;52.570;13.052;2024-03-25T02:49:34;8.00;99.90
23207;DHT22;11773;52.570;13.052;2024-03-25T02:52:03;8.10;99.90
23207;DHT22;11773;52.570;13.052;2024-03-25T02:54:33;8.20;99.90
23207;DHT22;11773;52.570;13.052;2024-03-25T02:57:03;8.10;99.90
23207;DHT22;11773;52.570;13.052;2024-03-25T02:59:33;8.00;99.90
23207;DHT22;11773;52.570;13.052;2024-03-25T03:02:02;8.00;99.90
23207;DHT22;11773;52.570;13.052;2024-03-25T03:04:32;8.00;99.90
23207;DHT22;11773;52.570;13.052;2024-03-25T03:07:01;7.90;99.90
23207;DHT22;11773;52.570;13.052;2024-03-25T03:09:31;7.90;99.90
23207;DHT22;11773;52.570;13.052;2024-03-25T03:12:01;8.00;99.90
23207;DHT22;11773;52.570;13.052;2024-03-25T03:14:30;7.90;99.90
23207;DHT22;11773;52.570;13.052;2024-03-25T03:17:00;8.00;99.90
23207;DHT22;11773;52.570;13.052;2024-03-25T03:19:31;8.00;99.90
23207;DHT22;11773;52.570;13.052;2024-03-25T03:22:01;8.00;99.90
23207;DHT22;11773;52.570;13.052;2024-03-25T03:24:30;7.90;99.90
23207;DHT22;11773;52.570;13.052;2024-03-25T03:27:00;7.90;99.90
23207;DHT22;11773;52.570;13.052;2024-03-25T03:29:30;8.00;99.90
23207;DHT22;11773;52.570;13.052;2024-03-25T03:31:59;8.00;99.90
23207;DHT22;11773;52.570;13.052;2024-03-25T03:34:29;8.00;99.90
23207;DHT22;11773;52.570;13.052;2024-03-25T03:36:58;7.90;99.90
23207;DHT22;11773;52.570;13.052;2024-03-25T03:39:28;7.90;99.90
23207;DHT22;11773;52.570;13.052;2024-03-25T03:41:58;7.90;99.90
23207;DHT22;11773;52.570;13.052;2024-03-25T03:44:27;8.10;99.90
23207;DHT22;11773;52.570;13.052;2024-03-25T03:46:57;7.90;99.90
23207;DHT22;11773;52.570;13.052;2024-03-25T03:49:26;7.80;99.90
23207;DHT22;11773;52.570;13.052;2024-03-25T03:51:56;7.80;99.90
23207;DHT22;11773;52.570;13.052;2024-03-25T03:54:25;7.90;99.90
23207;DHT22;11773;52.570;13.052;2024-03-25T03:56:55;7.80;99.90
23207;DHT22;11773;52.570;13.052;2024-03-25T03:59:25;7.90;99.90
23207;DHT22;11773;52.570;13.052;2024-03-25T04:01:55;7.80;99.90
23207;DHT22;11773;52.570;13.052;2024-03-25T04:04:26;7.80;99.90
23207;DHT22;11773;52.570;13.052;2024-03-25T04:06:55;7.80;99.90
23207;DHT22;11773;52.570;13.052;2024-03-25T04:09:26;7.90;99.90
23207;DHT22;11773;52.570;13.052;2024-03-25T04:11:57;7.80;99.90
23207;DHT22;11773;52.570;13.052;2024-03-25T04:14:28;7.90;99.90
23207;DHT22;11773;52.570;13.052;2024-03-25T04:16:58;8.00;99.90
23207;DHT22;11773;52.570;13.052;2024-03-25T04:19:27;7.90;99.90
23207;DHT22;11773;52.570;13.052;2024-03-25T04:21:57;8.00;99.90
23207;DHT22;11773;52.570;13.052;2024-03-25T04:24:27;7.90;99.90
23207;DHT22;11773;52.570;13.052;2024-03-25T04:26:56;7.80;99.90
23207;DHT22;11773;52.570;13.052;2024-03-25T04:29:27;7.80;99.90
23207;DHT22;11773;52.570;13.052;2024-03-25T04:31:57;7.80;99.90
23207;DHT22;11773;52.570;13.052;2024-03-25T04:34:27;7.70;99.90
23207;DHT22;11773;52.570;13.052;2024-03-25T04:36:57;7.80;99.90
23207;DHT22;11773;52.570;13.052;2024-03-25T04:39:27;7.70;99.90
23207;DHT22;11773;52.570;13.052;2024-03-25T04:41:57;7.60;99.90
23207;DHT22;11773;52.570;13.052;2024-03-25T04:44:27;7.70;99.90
23207;DHT22;11773;52.570;13.052;2024-03-25T04:46:57;7.60;99.90
23207;DHT22;11773;52.570;13.052;2024-03-25T04:49:27;7.70;99.90
23207;DHT22;11773;52.570;13.052;2024-03-25T04:51:56;7.60;99.90
23207;DHT22;11773;52.570;13.052;2024-03-25T04:54:26;7.70;99.90
23207;DHT22;11773;52.570;13.052;2024-03-25T04:56:55;7.60;99.90
23207;DHT22;11773;52.570;13.052;2024-03-25T04:59:25;7.70;99.90
23207;DHT22;11773;52.570;13.052;2024-03-25T05:01:54;7.60;99.90
23207;DHT22;11773;52.570;13.052;2024-03-25T05:04:24;7.60;99.90
23207;DHT22;11773;52.570;13.052;2024-03-25T05:06:54;7.70;99.90
23207;DHT22;11773;52.570;13.052;2024-03-25T05:09:23;7.80;99.90
23207;DHT22;11773;52.570;13.052;2024-03-25T05:11:53;7.90;99.90
23207;DHT22;11773;52.570;13.052;2024-03-25T05:14:22;7.80;99.90
23207;DHT22;11773;52.570;13.052;2024-03-25T05:16:52;7.80;99.90
23207;DHT22;11773;52.570;13.052;2024-03-25T05:19:21;7.70;99.90
23207;DHT22;11773;52.570;13.052;2024-03-25T05:21:51;7.90;99.90
23207;DHT22;11773;52.570;13.052;2024-03-25T05:24:20;7.90;99.90
23207;DHT22;11773;52.570;13.052;2024-03-25T05:26:50;7.80;99.90
23207;DHT22;11773;52.570;13.052;2024-03-25T05:29:20;7.80;99.90
23207;DHT22;11773;52.570;13.052;2024-03-25T05:32:03;7.90;99.90
23207;DHT22;11773;52.570;13.052;2024-03-25T05:34:29;7.80;99.90
23207;DHT22;11773;52.570;13.052;2024-03-25T05:36:59;7.70;99.90
23207;DHT22;11773;52.570;13.052;2024-03-25T05:39:30;7.70;99.90
23207;DHT22;11773;52.570;13.052;2024-03-25T05:42:00;7.60;99.90
23207;DHT22;11773;52.570;13.052;2024-03-25T05:44:30;7.70;99.90
23207;DHT22;11773;52.570;13.052;2024-03-25T05:46:59;7.90;99.90
23207;DHT22;11773;52.570;13.052;2024-03-25T05:49:30;7.70;99.90
23207;DHT22;11773;52.570;13.052;2024-03-25T05:52:00;7.80;99.90
23207;DHT22;11773;52.570;13.052;2024-03-25T05:54:30;7.90;99.90
23207;DHT22;11773;52.570;13.052;2024-03-25T05:56:59;7.80;99.90
23207;DHT22;11773;52.570;13.052;2024-03-25T05:59:30;7.70;99.90
23207;DHT22;11773;52.570;13.052;2024-03-25T06:01:59;7.80;99.90
23207;DHT22;11773;52.570;13.052;2024-03-25T06:04:29;7.90;99.90
23207;DHT22;11773;52.570;13.052;2024-03-25T06:06:59;7.80;99.90
23207;DHT22;11773;52.570;13.052;2024-03-25T06:09:30;7.70;99.90
23207;DHT22;11773;52.570;13.052;2024-03-25T06:11:59;7.70;99.90
23207;DHT22;11773;52.570;13.052;2024-03-25T06:14:29;7.70;99.90
23207;DHT22;11773;52.570;13.052;2024-03-25T06:16:59;7.70;99.90
23207;DHT22;11773;52.570;13.052;2024-03-25T06:19:29;7.70;99.90
23207;DHT22;11773;52.570;13.052;2024-03-25T06:21:58;7.80;99.90
23207;DHT22;11773;52.570;13.052;2024-03-25T06:24:28;7.80;99.90
23207;DHT22;11773;52.570;13.052;2024-03-25T06:26:57;7.80;99.90
23207;DHT22;11773;52.570;13.052;2024-03-25T06:29:27;7.80;99.90
23207;DHT22;11773;52.570;13.052;2024-03-25T06:31:56;7.70;99.90
23207;DHT22;11773;52.570;13.052;2024-03-25T06:34:43;7.80;99.90
23207;DHT22;11773;52.570;13.052;2024-03-25T06:37:13;7.90;99.90
23207;DHT22;11773;52.570;13.052;2024-03-25T06:39:43;7.90;99.90
23207;DHT22;11773;52.570;13.052;2024-03-25T06:42:12;7.80;99.90
23207;DHT22;11773;52.570;13.052;2024-03-25T06:44:42;7.90;99.90
23207;DHT22;11773;52.570;13.052;2024-03-25T06:47:13;7.90;99.90
23207;DHT22;11773;52.570;13.052;2024-03-25T06:49:43;8.00;99.90
23207;DHT22;11773;52.570;13.052;2024-03-25T06:52:13;8.00;99.90
23207;DHT22;11773;52.570;13.052;2024-03-25T06:54:42;8.00;99.90
23207;DHT22;11773;52.570;13.052;2024-03-25T06:57:12;8.00;99.90
23207;DHT22;11773;52.570;13.052;2024-03-25T06:59:42;8.20;99.90
23207;DHT22;11773;52.570;13.052;2024-03-25T07:02:11;8.10;99.90
23207;DHT22;11773;52.570;13.052;2024-03-25T07:04:41;8.00;99.90
23207;DHT22;11773;52.570;13.052;2024-03-25T07:07:10;8.00;99.90
23207;DHT22;11773;52.570;13.052;2024-03-25T07:09:40;7.90;99.90
23207;DHT22;11773;52.570;13.052;2024-03-25T07:12:09;7.90;99.90
23207;DHT22;11773;52.570;13.052;2024-03-25T07:14:39;7.90;99.90
23207;DHT22;11773;52.570;13.052;2024-03-25T07:17:08;7.90;99.90
23207;DHT22;11773;52.570;13.052;2024-03-25T07:19:39;8.00;99.90
23207;DHT22;11773;52.570;13.052;2024-03-25T07:22:08;7.80;99.90
23207;DHT22;11773;52.570;13.052;2024-03-25T07:24:38;7.80;99.90
23207;DHT22;11773;52.570;13.052;2024-03-25T07:27:07;8.00;99.90
23207;DHT22;11773;52.570;13.052;2024-03-25T07:29:37;8.00;99.90
23207;DHT22;11773;52.570;13.052;2024-03-25T07:32:07;7.90;99.90
23207;DHT22;11773;52.570;13.052;2024-03-25T07:34:37;8.00;99.90
23207;DHT22;11773;52.570;13.052;2024-03-25T07:37:06;7.80;99.90
23207;DHT22;11773;52.570;13.052;2024-03-25T07:39:36;7.80;99.90
23207;DHT22;11773;52.570;13.052;2024-03-25T07:42:06;8.00;99.90
23207;DHT22;11773;52.570;13.052;2024-03-25T07:44:35;7.90;99.90
23207;DHT22;11773;52.570;13.052;2024-03-25T07:47:05;7.90;99.90
23207;DHT22;11773;52.570;13.052;2024-03-25T07:49:34;7.90;99.90
23207;DHT22;11773;52.570;13.052;2024-03-25T07:52:04;8.10;99.90
23207;DHT22;11773;52.570;13.052;2024-03-25T07:54:35;8.00;99.90
23207;DHT22;11773;52.570;13.052;2024-03-25T07:57:07;8.20;99.90
23207;DHT22;11773;52.570;13.052;2024-03-25T07:59:36;8.20;99.90
23207;DHT22;11773;52.570;13.052;2024-03-25T08:02:06;8.20;99.90
23207;DHT22;11773;52.570;13.052;2024-03-25T08:04:36;8.30;99.90
23207;DHT22;11773;52.570;13.052;2024-03-25T08:07:06;8.40;99.90
23207;DHT22;11773;52.570;13.052;2024-03-25T08:09:35;8.60;99.90
23207;DHT22;11773;52.570;13.052;2024-03-25T08:12:05;8.60;99.90
23207;DHT22;11773;52.570;13.052;2024-03-25T08:14:35;8.60;99.90
23207;DHT22;11773;52.570;13.052;2024-03-25T08:17:04;8.60;99.90
23207;DHT22;11773;52.570;13.052;2024-03-25T08:19:34;8.60;99.90
23207;DHT22;11773;52.570;13.052;2024-03-25T08:22:04;8.60;99.90
23207;DHT22;11773;52.570;13.052;2024-03-25T08:24:34;8.80;99.90
23207;DHT22;11773;52.570;13.052;2024-03-25T08:27:03;8.90;99.90
23207;DHT22;11773;52.570;13.052;2024-03-25T08:29:33;8.80;99.90
23207;DHT22;11773;52.570;13.052;2024-03-25T08:32:03;8.80;99.90
23207;DHT22;11773;52.570;13.052;2024-03-25T08:34:33;8.90;99.90
23207;DHT22;11773;52.570;13.052;2024-03-25T08:37:02;8.90;99.90
23207;DHT22;11773;52.570;13.052;2024-03-25T08:39:32;9.10;99.90
23207;DHT22;11773;52.570;13.052;2024-03-25T08:42:03;9.00;99.90
23207;DHT22;11773;52.570;13.052;2024-03-25T08:44:33;9.20;99.90
23207;DHT22;11773;52.570;13.052;2024-03-25T08:47:03;9.00;99.90
23207;DHT22;11773;52.570;13.052;2024-03-25T08:49:32;8.90;99.90
23207;DHT22;11773;52.570;13.052;2024-03-25T08:52:02;8.80;99.90
23207;DHT22;11773;52.570;13.052;2024-03-25T08:54:32;8.70;99.90
23207;DHT22;11773;52.570;13.052;2024-03-25T08:57:01;8.90;99.90
23207;DHT22;11773;52.570;13.052;2024-03-25T08:59:32;8.80;99.90
23207;DHT22;11773;52.570;13.052;2024-03-25T09:02:02;8.60;99.90
23207;DHT22;11773;52.570;13.052;2024-03-25T09:04:33;8.80;99.90
23207;DHT22;11773;52.570;13.052;2024-03-25T09:07:03;8.90;99.90
23207;DHT22;11773;52.570;13.052;2024-03-25T09:09:32;9.00;99.90
23207;DHT22;11773;52.570;13.052;2024-03-25T09:12:20;9.00;99.90
23207;DHT22;11773;52.570;13.052;2024-03-25T09:14:50;9.10;99.90
23207;DHT22;11773;52.570;13.052;2024-03-25T09:17:19;9.20;99.90
23207;DHT22;11773;52.570;13.052;2024-03-25T09:19:51;9.40;99.90
23207;DHT22;11773;52.570;13.052;2024-03-25T09:22:22;9.50;99.90
23207;DHT22;11773;52.570;13.052;2024-03-25T09:24:51;9.60;99.90
23207;DHT22;11773;52.570;13.052;2024-03-25T09:27:21;9.60;99.90
23207;DHT22;11773;52.570;13.052;2024-03-25T09:29:51;9.60;99.90
23207;DHT22;11773;52.570;13.052;2024-03-25T09:32:21;9.80;99.90
23207;DHT22;11773;52.570;13.052;2024-03-25T09:34:52;9.80;99.90
23207;DHT22;11773;52.570;13.052;2024-03-25T09:37:23;9.90;99.90
23207;DHT22;11773;52.570;13.052;2024-03-25T09:39:53;10.10;99.90
23207;DHT22;11773;52.570;13.052;2024-03-25T09:42:27;9.90;99.90
23207;DHT22;11773;52.570;13.052;2024-03-25T09:44:58;9.80;99.90
23207;DHT22;11773;52.570;13.052;2024-03-25T09:47:28;9.90;99.90
23207;DHT22;11773;52.570;13.052;2024-03-25T09:49:59;10.10;99.90
23207;DHT22;11773;52.570;13.052;2024-03-25T09:52:31;10.00;99.90
23207;DHT22;11773;52.570;13.052;2024-03-25T09:55:01;10.10;99.90
23207;DHT22;11773;52.570;13.052;2024-03-25T09:57:31;10.10;99.90
23207;DHT22;11773;52.570;13.052;2024-03-25T10:00:01;10.10;99.90
23207;DHT22;11773;52.570;13.052;2024-03-25T10:02:32;10.10;99.90
23207;DHT22;11773;52.570;13.052;2024-03-25T10:05:03;9.90;99.90
23207;DHT22;11773;52.570;13.052;2024-03-25T10:07:35;9.80;99.90
23207;DHT22;11773;52.570;13.052;2024-03-25T10:10:05;10.10;99.90
23207;DHT22;11773;52.570;13.052;2024-03-25T10:12:36;10.20;99.90
23207;DHT22;11773;52.570;13.052;2024-03-25T10:15:06;10.20;99.90
23207;DHT22;11773;52.570;13.052;2024-03-25T10:17:36;10.10;99.90
23207;DHT22;11773;52.570;13.052;2024-03-25T10:20:06;10.10;99.90
23207;DHT22;11773;52.570;13.052;2024-03-25T10:22:44;10.20;99.90
23207;DHT22;11773;52.570;13.052;2024-03-25T10:25:28;10.20;99.90
23207;DHT22;11773;52.570;13.052;2024-03-25T10:27:59;10.20;99.90
23207;DHT22;11773;52.570;13.052;2024-03-25T10:30:30;10.20;99.90
23207;DHT22;11773;52.570;13.052;2024-03-25T10:33:04;10.40;99.90
23207;DHT22;11773;52.570;13.052;2024-03-25T10:35:36;10.40;99.90
23207;DHT22;11773;52.570;13.052;2024-03-25T10:38:07;10.30;99.90
23207;DHT22;11773;52.570;13.052;2024-03-25T10:40:41;10.30;99.90
23207;DHT22;11773;52.570;13.052;2024-03-25T10:43:12;10.40;99.90
23207;DHT22;11773;52.570;13.052;2024-03-25T10:45:43;10.60;99.90
23207;DHT22;11773;52.570;13.052;2024-03-25T10:48:17;10.70;99.90
23207;DHT22;11773;52.570;13.052;2024-03-25T10:51:01;10.80;99.90
23207;DHT22;11773;52.570;13.052;2024-03-25T10:53:35;10.80;99.90
23207;DHT22;11773;52.570;13.052;2024-03-25T10:56:07;10.80;99.90
23207;DHT22;11773;52.570;13.052;2024-03-25T10:58:37;10.80;99.90
23207;DHT22;11773;52.570;13.052;2024-03-25T11:01:08;10.80;99.90
23207;DHT22;11773;52.570;13.052;2024-03-25T11:03:38;10.70;99.90
23207;DHT22;11773;52.570;13.052;2024-03-25T11:06:08;10.80;99.90
23207;DHT22;11773;52.570;13.052;2024-03-25T11:08:38;10.80;99.90
23207;DHT22;11773;52.570;13.052;2024-03-25T11:11:09;10.70;99.90
23207;DHT22;11773;52.570;13.052;2024-03-25T11:13:39;10.90;99.90
23207;DHT22;11773;52.570;13.052;2024-03-25T11:16:10;11.20;99.90
23207;DHT22;11773;52.570;13.052;2024-03-25T11:18:50;11.10;99.90
23207;DHT22;11773;52.570;13.052;2024-03-25T11:21:23;10.90;99.90
23207;DHT22;11773;52.570;13.052;2024-03-25T11:23:49;10.90;99.90
23207;DHT22;11773;52.570;13.052;2024-03-25T11:26:21;11.10;99.90
23207;DHT22;11773;52.570;13.052;2024-03-25T11:28:55;11.30;99.90
23207;DHT22;11773;52.570;13.052;2024-03-25T11:31:26;11.40;99.90
23207;DHT22;11773;52.570;13.052;2024-03-25T11:33:56;11.50;99.90
23207;DHT22;11773;52.570;13.052;2024-03-25T11:36:27;11.50;99.90
23207;DHT22;11773;52.570;13.052;2024-03-25T11:39:02;11.30;99.90
23207;DHT22;11773;52.570;13.052;2024-03-25T11:41:35;11.40;99.90
23207;DHT22;11773;52.570;13.052;2024-03-25T11:44:10;11.40;99.90
23207;DHT22;11773;52.570;13.052;2024-03-25T11:46:43;11.50;99.90
23207;DHT22;11773;52.570;13.052;2024-03-25T11:49:15;11.50;99.90
23207;DHT22;11773;52.570;13.052;2024-03-25T11:51:45;11.70;99.90
23207;DHT22;11773;52.570;13.052;2024-03-25T11:54:15;11.80;99.90
23207;DHT22;11773;52.570;13.052;2024-03-25T11:56:44;11.80;99.90
23207;DHT22;11773;52.570;13.052;2024-03-25T11:59:14;11.50;99.90
23207;DHT22;11773;52.570;13.052;2024-03-25T12:01:44;11.40;99.90
23207;DHT22;11773;52.570;13.052;2024-03-25T12:04:17;11.10;99.90
23207;DHT22;11773;52.570;13.052;2024-03-25T12:07:00;10.90;99.90
23207;DHT22;11773;52.570;13.052;2024-03-25T12:09:35;10.90;99.90
23207;DHT22;11773;52.570;13.052;2024-03-25T12:12:22;10.90;99.90
23207;DHT22;11773;52.570;13.052;2024-03-25T12:14:54;10.90;99.90
23207;DHT22;11773;52.570;13.052;2024-03-25T12:17:25;11.00;99.90
23207;DHT22;11773;52.570;13.052;2024-03-25T12:20:07;11.30;99.90
23207;DHT22;11773;52.570;13.052;2024-03-25T12:22:38;11.60;99.90
23207;DHT22;11773;52.570;13.052;2024-03-25T12:25:08;11.80;99.90
23207;DHT22;11773;52.570;13.052;2024-03-25T12:27:39;12.00;99.90
23207;DHT22;11773;52.570;13.052;2024-03-25T12:30:11;12.00;99.90
23207;DHT22;11773;52.570;13.052;2024-03-25T12:32:42;12.20;99.90
23207;DHT22;11773;52.570;13.052;2024-03-25T12:35:14;12.00;99.90
23207;DHT22;11773;52.570;13.052;2024-03-25T12:37:46;12.00;99.90
23207;DHT22;11773;52.570;13.052;2024-03-25T12:40:28;12.10;99.90
23207;DHT22;11773;52.570;13.052;2024-03-25T12:42:59;12.10;99.90
23207;DHT22;11773;52.570;13.052;2024-03-25T12:45:30;12.10;99.90
23207;DHT22;11773;52.570;13.052;2024-03-25T12:48:00;12.20;99.90
23207;DHT22;11773;52.570;13.052;2024-03-25T12:50:31;12.20;99.90
23207;DHT22;11773;52.570;13.052;2024-03-25T12:53:01;12.10;99.90
23207;DHT22;11773;52.570;13.052;2024-03-25T12:55:31;12.20;99.90
23207;DHT22;11773;52.570;13.052;2024-03-25T12:58:00;12.20;99.90
23207;DHT22;11773;52.570;13.052;2024-03-25T13:00:30;12.20;99.90
23207;DHT22;11773;52.570;13.052;2024-03-25T13:03:00;12.30;99.90
23207;DHT22;11773;52.570;13.052;2024-03-25T13:05:30;12.30;99.90
23207;DHT22;11773;52.570;13.052;2024-03-25T13:08:00;12.30;99.90
23207;DHT22;11773;52.570;13.052;2024-03-25T13:10:31;12.20;99.90
23207;DHT22;11773;52.570;13.052;2024-03-25T13:13:02;12.20;99.90
23207;DHT22;11773;52.570;13.052;2024-03-25T13:15:33;12.30;99.90
23207;DHT22;11773;52.570;13.052;2024-03-25T13:18:04;12.40;99.90
23207;DHT22;11773;52.570;13.052;2024-03-25T13:20:34;12.40;99.90
23207;DHT22;11773;52.570;13.052;2024-03-25T13:23:05;12.30;99.90
23207;DHT22;11773;52.570;13.052;2024-03-25T13:25:35;12.20;99.90
23207;DHT22;11773;52.570;13.052;2024-03-25T13:28:04;12.00;99.90
23207;DHT22;11773;52.570;13.052;2024-03-25T13:30:34;12.10;99.90
23207;DHT22;11773;52.570;13.052;2024-03-25T13:33:04;11.90;99.90
23207;DHT22;11773;52.570;13.052;2024-03-25T13:35:34;11.90;99.90
23207;DHT22;11773;52.570;13.052;2024-03-25T13:38:05;12.00;99.90
23207;DHT22;11773;52.570;13.052;2024-03-25T13:40:34;12.20;99.90
23207;DHT22;11773;52.570;13.052;2024-03-25T13:43:05;12.00;99.90
23207;DHT22;11773;52.570;13.052;2024-03-25T13:45:36;12.10;99.90
23207;DHT22;11773;52.570;13.052;2024-03-25T13:48:09;11.90;99.90
23207;DHT22;11773;52.570;13.052;2024-03-25T13:50:38;11.90;99.90
23207;DHT22;11773;52.570;13.052;2024-03-25T13:53:09;12.00;99.90
23207;DHT22;11773;52.570;13.052;2024-03-25T13:55:39;12.00;99.90
23207;DHT22;11773;52.570;13.052;2024-03-25T13:58:09;11.80;99.90
23207;DHT22;11773;52.570;13.052;2024-03-25T14:00:39;11.80;99.90
23207;DHT22;11773;52.570;13.052;2024-03-25T14:03:08;12.00;99.90
23207;DHT22;11773;52.570;13.052;2024-03-25T14:05:38;12.00;99.90
23207;DHT22;11773;52.570;13.052;2024-03-25T14:08:08;11.70;99.90
23207;DHT22;11773;52.570;13.052;2024-03-25T14:10:38;11.90;99.90
23207;DHT22;11773;52.570;13.052;2024-03-25T14:13:07;12.10;99.90
23207;DHT22;11773;52.570;13.052;2024-03-25T14:15:37;11.90;99.90
23207;DHT22;11773;52.570;13.052;2024-03-25T14:18:06;11.90;99.90
23207;DHT22;11773;52.570;13.052;2024-03-25T14:20:37;12.00;99.90
23207;DHT22;11773;52.570;13.052;2024-03-25T14:23:07;11.80;99.90
23207;DHT22;11773;52.570;13.052;2024-03-25T14:25:38;12.00;99.90
23207;DHT22;11773;52.570;13.052;2024-03-25T14:28:09;11.90;99.90
23207;DHT22;11773;52.570;13.052;2024-03-25T14:30:38;12.10;99.90
23207;DHT22;11773;52.570;13.052;2024-03-25T14:33:08;12.00;99.90
23207;DHT22;11773;52.570;13.052;2024-03-25T14:35:38;12.10;99.90
23207;DHT22;11773;52.570;13.052;2024-03-25T14:38:07;12.00;99.90
23207;DHT22;11773;52.570;13.052;2024-03-25T14:40:40;11.90;99.90
23207;DHT22;11773;52.570;13.052;2024-03-25T14:43:10;11.50;99.90
23207;DHT22;11773;52.570;13.052;2024-03-25T14:45:39;11.50;99.90
23207;DHT22;11773;52.570;13.052;2024-03-25T14:48:09;11.30;99.90
23207;DHT22;11773;52.570;13.052;2024-03-25T14:50:38;11.30;99.90
23207;DHT22;11773;52.570;13.052;2024-03-25T14:53:08;11.40;99.90
23207;DHT22;11773;52.570;13.052;2024-03-25T14:55:38;11.50;99.90
23207;DHT22;11773;52.570;13.052;2024-03-25T14:58:07;11.60;99.90
23207;DHT22;11773;52.570;13.052;2024-03-25T15:00:37;11.60;99.90
23207;DHT22;11773;52.570;13.052;2024-03-25T15:03:07;11.60;99.90
23207;DHT22;11773;52.570;13.052;2024-03-25T15:05:37;11.60;99.90
23207;DHT22;11773;52.570;13.052;2024-03-25T15:08:07;11.60;99.90
23207;DHT22;11773;52.570;13.052;2024-03-25T15:10:36;11.50;99.90
23207;DHT22;11773;52.570;13.052;2024-03-25T15:13:06;11.60;99.90
23207;DHT22;11773;52.570;13.052;2024-03-25T15:15:40;11.60;99.90
23207;DHT22;11773;52.570;13.052;2024-03-25T15:18:11;11.60;99.90
23207;DHT22;11773;52.570;13.052;2024-03-25T15:20:40;11.70;99.90
23207;DHT22;11773;52.570;13.052;2024-03-25T15:23:10;11.50;99.90
23207;DHT22;11773;52.570;13.052;2024-03-25T15:25:39;11.50;99.90
23207;DHT22;11773;52.570;13.052;2024-03-25T15:28:09;11.60;99.90
23207;DHT22;11773;52.570;13.052;2024-03-25T15:30:39;11.50;99.90
23207;DHT22;11773;52.570;13.052;2024-03-25T15:33:08;11.60;99.90
23207;DHT22;11773;52.570;13.052;2024-03-25T15:35:38;11.60;99.90
23207;DHT22;11773;52.570;13.052;2024-03-25T15:38:07;11.60;99.90
23207;DHT22;11773;52.570;13.052;2024-03-25T15:40:38;11.70;99.90
23207;DHT22;11773;52.570;13.052;2024-03-25T15:43:09;11.60;99.90
23207;DHT22;11773;52.570;13.052;2024-03-25T15:45:39;11.50;99.90